Canavieiras Airport


Codes: SNED/CNV
Name: Canavieiras Airport
City: Canavieiras
Country: Brazil
Elevation: 19 ft.

Photos at Canavieiras Airport


   Photos courtesy of SpottingLog. You can add your own sightings and photos by signing up for a free trial today.



No photos found.

Weather at Canavieiras Airport


Time (UTC)DescriptionTempratureWindCloud coverageVisibilityPressureHumidity
18-Apr-2024 00:00Scattered Clouds24°C4 mph, S26%10000m1013hPa76%
18-Apr-2024 03:00Few Clouds23°C2 mph, S20%10000m1013hPa81%
18-Apr-2024 06:00Few Clouds22°C4 mph, SW12%10000m1012hPa88%
18-Apr-2024 09:00Scattered Clouds21°C4 mph, SW30%10000m1013hPa91%
18-Apr-2024 12:00Few Clouds27°C4 mph, SW18%10000m1015hPa67%
18-Apr-2024 15:00Light Rain29°C7 mph, SE47%10000m1013hPa66%
18-Apr-2024 18:00Light Rain28°C7 mph, E51%10000m1011hPa69%
18-Apr-2024 21:00Light Rain25°C4 mph, E31%10000m1013hPa88%
19-Apr-2024 00:00Light Rain24°C4 mph, E17%10000m1014hPa90%
19-Apr-2024 03:00Light Rain24°C2 mph, E41%10000m1014hPa89%
19-Apr-2024 06:00Light Rain24°C2 mph, SE63%10000m1013hPa88%
19-Apr-2024 09:00Light Rain24°C2 mph, S82%10000m1014hPa89%
19-Apr-2024 12:00Light Rain28°C4 mph, SE55%10000m1016hPa66%
19-Apr-2024 15:00Broken Clouds29°C7 mph, SE63%10000m1014hPa64%
19-Apr-2024 18:00Broken Clouds28°C9 mph, SE71%10000m1013hPa64%
19-Apr-2024 21:00Few Clouds25°C7 mph, S14%10000m1014hPa80%
20-Apr-2024 00:00Light Rain24°C4 mph, S11%10000m1016hPa93%
20-Apr-2024 03:00Light Rain24°C4 mph, S87%6276m1016hPa94%
20-Apr-2024 06:00Light Rain23°C7 mph, SW85%1360m1015hPa94%
20-Apr-2024 09:00Light Rain22°C7 mph, SW81%406m1016hPa97%
20-Apr-2024 12:00Light Rain25°C7 mph, SW90%10000m1018hPa83%
20-Apr-2024 15:00Light Rain27°C7 mph, S95%10000m1016hPa80%
20-Apr-2024 18:00Light Rain27°C9 mph, S96%10000m1014hPa80%
20-Apr-2024 21:00Light Rain24°C7 mph, S95%10000m1015hPa93%
21-Apr-2024 00:00Light Rain23°C7 mph, S83%10000m1017hPa94%
21-Apr-2024 03:00Light Rain24°C4 mph, S85%10000m1016hPa93%
21-Apr-2024 06:00Light Rain23°C7 mph, SW76%275m1015hPa95%
21-Apr-2024 09:00Light Rain23°C7 mph, N86%0m1015hPa95%
21-Apr-2024 12:00Light Rain25°C9 mph, S79%10000m1016hPa86%
21-Apr-2024 15:00Light Rain26°C9 mph, S88%7892m1015hPa90%
21-Apr-2024 18:00Light Rain26°C9 mph, S80%10000m1014hPa90%
21-Apr-2024 21:00Light Rain24°C7 mph, S47%10000m1014hPa94%
22-Apr-2024 00:00Light Rain23°C4 mph, S40%10000m1015hPa95%
22-Apr-2024 03:00Light Rain23°C4 mph, N52%0m1014hPa95%
22-Apr-2024 06:00Light Rain23°C4 mph, N49%0m1014hPa95%
22-Apr-2024 09:00Light Rain22°C4 mph, N79%0m1015hPa96%
22-Apr-2024 12:00Light Rain25°C4 mph, SW86%10000m1016hPa89%
22-Apr-2024 15:00Light Rain27°C7 mph, S36%10000m1014hPa85%
22-Apr-2024 18:00Light Rain26°C7 mph, S34%10000m1013hPa89%
22-Apr-2024 21:00Light Rain24°C4 mph, S0%10000m1013hPa92%